Time;durP1;ratioP1;P1;durP2;ratioP2;P2;SDS_P1;SDS_P2;PMS_P1;PMS_P2;Temp;Humidity;BMP_temperature;BMP_pressure;BME280_temperature;BME280_humidity;BME280_pressure;Samples;Min_cycle;Max_cycle;Signal;HPM_P1;HPM_P2
2022/07/18 00:00:30;;;;;;;4.05;1.90;;;;;;;17.07;54.10;102308.31;5090870;28;20039;-72
2022/07/18 00:03:00;;;;;;;3.80;1.90;;;;;;;17.05;54.37;102310.16;5090988;28;20141;-71
2022/07/18 00:05:28;;;;;;;7.05;2.28;;;;;;;17.00;54.29;102305.91;5092347;28;20500;-71
2022/07/18 00:07:55;;;;;;;8.55;2.00;;;;;;;16.94;54.58;102303.47;5090999;28;20044;-72
2022/07/18 00:10:22;;;;;;;4.13;2.00;;;;;;;16.90;55.07;102305.34;5091536;28;20036;-72
2022/07/18 00:12:49;;;;;;;6.40;2.50;;;;;;;16.85;55.17;102300.16;5092325;28;20125;-73
2022/07/18 00:15:17;;;;;;;5.45;2.13;;;;;;;16.81;55.19;102292.34;5091845;28;20064;-72
2022/07/18 00:17:44;;;;;;;3.60;1.88;;;;;;;16.78;55.13;102301.31;5092061;28;20491;-72
2022/07/18 00:20:11;;;;;;;5.03;2.10;;;;;;;16.73;56.18;102301.47;5090671;28;20131;-72
2022/07/18 00:22:39;;;;;;;3.60;1.92;;;;;;;16.69;56.39;102297.13;5092760;28;20079;-72
2022/07/18 00:25:07;;;;;;;4.28;2.40;;;;;;;16.65;56.39;102298.16;5088665;28;20047;-72
2022/07/18 00:27:34;;;;;;;3.63;2.00;;;;;;;16.61;56.19;102299.19;5091834;28;20575;-72
2022/07/18 00:30:04;;;;;;;4.15;2.22;;;;;;;16.59;56.23;102293.03;5091515;28;20133;-72
2022/07/18 00:32:31;;;;;;;6.15;2.33;;;;;;;16.53;56.13;102299.44;5091351;28;20047;-72
2022/07/18 00:34:59;;;;;;;4.45;2.22;;;;;;;16.50;56.24;102294.19;5090551;28;20151;-71
2022/07/18 00:37:26;;;;;;;4.72;2.25;;;;;;;16.45;56.73;102286.34;5091017;28;20098;-71
2022/07/18 00:39:54;;;;;;;5.60;2.20;;;;;;;16.40;56.88;102282.09;5088021;28;20040;-72
2022/07/18 00:42:21;;;;;;;5.25;1.92;;;;;;;16.35;57.54;102284.91;5088897;28;20787;-71
2022/07/18 00:44:54;;;;;;;4.32;2.20;;;;;;;16.30;57.54;102287.72;5091870;28;20065;-72
2022/07/18 00:47:22;;;;;;;3.78;1.92;;;;;;;16.27;57.59;102286.94;5090914;28;20033;-72
2022/07/18 00:49:49;;;;;;;4.03;2.00;;;;;;;16.23;57.58;102280.84;5092597;28;20076;-71
2022/07/18 00:52:16;;;;;;;4.28;2.13;;;;;;;16.22;57.44;102283.56;5090098;28;20056;-72
2022/07/18 00:54:43;;;;;;;2.55;1.80;;;;;;;16.19;57.44;102279.19;5092152;28;20380;-72
2022/07/18 00:57:12;;;;;;;4.60;2.13;;;;;;;16.18;57.58;102273.94;5090036;28;20059;-73
2022/07/18 01:02:27;;;;;;;3.35;2.13;;;;;;;16.13;58.01;102279.41;5091693;28;20071;-74
2022/07/18 01:04:54;;;;;;;3.75;2.20;;;;;;;16.09;57.92;102275.97;5089627;28;20033;-73
2022/07/18 01:07:21;;;;;;;4.85;2.20;;;;;;;16.07;58.29;102274.28;5090408;28;20041;-74
2022/07/18 01:09:48;;;;;;;4.07;2.00;;;;;;;16.02;58.58;102270.88;5092108;28;20033;-73
2022/07/18 01:12:16;;;;;;;4.68;2.05;;;;;;;15.97;58.68;102279.00;5085868;28;20052;-73
2022/07/18 01:14:45;;;;;;;4.97;2.00;;;;;;;15.92;58.78;102273.81;5091014;28;20419;-73
2022/07/18 01:17:19;;;;;;;4.07;2.20;;;;;;;15.89;58.54;102275.69;5089026;28;20056;-73
2022/07/18 01:19:46;;;;;;;4.53;1.83;;;;;;;15.83;58.59;102268.75;5089044;28;20128;-73
2022/07/18 01:22:18;;;;;;;4.30;2.13;;;;;;;15.79;58.66;102272.41;5091904;28;20039;-72
2022/07/18 01:24:47;;;;;;;4.95;2.33;;;;;;;15.78;58.61;102268.00;5090541;28;20036;-71
2022/07/18 01:27:17;;;;;;;4.32;2.20;;;;;;;15.80;58.37;102264.41;5087163;28;20071;-71
2022/07/18 01:29:47;;;;;;;2.83;2.22;;;;;;;15.88;58.35;102274.81;5089206;28;20101;-72
2022/07/18 01:32:16;;;;;;;3.63;2.00;;;;;;;15.91;58.04;102269.41;5086616;28;20071;-72
2022/07/18 01:34:46;;;;;;;3.63;1.90;;;;;;;15.90;57.95;102265.00;5090872;28;20047;-72
2022/07/18 01:37:15;;;;;;;3.30;1.90;;;;;;;15.90;58.03;102262.34;5089610;28;20063;-72
2022/07/18 01:39:44;;;;;;;3.00;1.75;;;;;;;15.87;58.03;102257.16;5081297;28;20054;-72
2022/07/18 01:42:13;;;;;;;5.20;2.35;;;;;;;15.78;58.58;102271.53;5089927;28;20044;-72
2022/07/18 01:44:41;;;;;;;3.55;1.92;;;;;;;15.70;58.77;102260.28;5089443;28;20835;-72
2022/07/18 01:47:10;;;;;;;3.88;2.20;;;;;;;15.65;58.81;102268.38;5087208;28;20152;-72
2022/07/18 01:49:39;;;;;;;3.58;2.20;;;;;;;15.60;58.87;102253.47;5091232;28;20870;-72
2022/07/18 01:52:07;;;;;;;4.32;2.25;;;;;;;15.54;58.73;102257.19;5088423;28;20127;-72
2022/07/18 01:54:36;;;;;;;3.78;1.88;;;;;;;15.48;59.45;102254.69;5087467;28;20053;-72
2022/07/18 01:57:07;;;;;;;3.72;2.20;;;;;;;15.42;59.59;102255.72;5090895;28;20041;-75
2022/07/18 01:59:35;;;;;;;5.55;2.10;;;;;;;15.36;60.24;102251.44;5088345;28;20043;-75
2022/07/18 02:02:05;;;;;;;3.42;1.90;;;;;;;15.32;60.21;102254.25;5088661;28;20090;-73
2022/07/18 02:07:21;;;;;;;4.30;2.08;;;;;;;15.30;60.85;102253.44;5088334;28;20037;-73
2022/07/18 02:09:50;;;;;;;4.55;2.05;;;;;;;15.30;60.64;102253.44;5089583;28;20045;-72
2022/07/18 02:12:17;;;;;;;3.17;2.00;;;;;;;15.30;60.48;102256.09;5090885;28;20126;-73
2022/07/18 02:14:45;;;;;;;5.10;2.28;;;;;;;15.29;60.45;102260.50;5088727;28;20156;-72
2022/07/18 02:17:12;;;;;;;4.22;2.22;;;;;;;15.28;60.79;102265.88;5088036;28;20131;-71
2022/07/18 02:19:39;;;;;;;4.20;1.98;;;;;;;15.25;60.72;102252.69;5090242;28;20511;-72
2022/07/18 02:22:07;;;;;;;3.75;2.20;;;;;;;15.20;60.71;102253.69;5092023;28;20799;-73
2022/07/18 02:24:34;;;;;;;3.35;2.25;;;;;;;15.16;60.99;102244.06;5090189;28;20037;-72
2022/07/18 02:27:01;;;;;;;5.10;2.30;;;;;;;15.09;60.97;102239.81;5089107;28;20144;-71
2022/07/18 02:29:28;;;;;;;4.88;2.45;;;;;;;15.05;61.78;102244.34;5091323;28;20062;-72
2022/07/18 02:31:55;;;;;;;3.60;2.30;;;;;;;15.01;61.66;102232.06;5090225;28;20045;-72
2022/07/18 02:34:23;;;;;;;5.15;2.20;;;;;;;14.99;61.52;102235.69;5090605;28;20048;-72
2022/07/18 02:36:51;;;;;;;4.20;2.10;;;;;;;14.96;61.57;102228.63;5088565;28;20044;-71
2022/07/18 02:39:19;;;;;;;4.00;2.20;;;;;;;14.97;61.83;102226.88;5087203;28;20040;-72
2022/07/18 02:41:47;;;;;;;4.82;2.17;;;;;;;14.96;61.90;102223.31;5086236;28;20419;-72
2022/07/18 02:44:14;;;;;;;5.53;2.22;;;;;;;14.98;61.96;102224.16;5090088;28;20114;-73
2022/07/18 02:46:43;;;;;;;4.35;2.22;;;;;;;15.01;62.00;102224.09;5085593;28;20221;-72
2022/07/18 02:49:26;;;;;;;5.55;2.45;;;;;;;15.05;61.74;102230.19;5085755;28;20080;-72
2022/07/18 02:51:57;;;;;;;5.78;2.70;;;;;;;15.10;61.83;102235.38;5092403;28;20489;-72
2022/07/18 02:54:26;;;;;;;5.20;2.50;;;;;;;15.13;61.75;102238.81;5092478;28;20044;-72
2022/07/18 02:56:54;;;;;;;5.10;2.40;;;;;;;15.14;61.54;102229.06;5091882;28;20036;-71
2022/07/18 02:59:21;;;;;;;5.05;2.70;;;;;;;15.17;61.83;102236.94;5093049;28;20498;-72
2022/07/18 03:01:49;;;;;;;5.13;2.45;;;;;;;15.16;61.95;102228.13;5092424;28;20434;-74
2022/07/18 03:04:18;;;;;;;5.43;2.30;;;;;;;15.14;61.83;102229.06;5093510;28;20048;-72
2022/07/18 03:06:47;;;;;;;4.18;2.35;;;;;;;15.10;62.41;102225.63;5091127;28;20052;-72
2022/07/18 03:09:15;;;;;;;4.28;2.33;;;;;;;15.05;62.61;102224.88;5092268;28;20041;-72
2022/07/18 03:11:43;;;;;;;5.30;2.30;;;;;;;15.00;62.54;102224.16;5090599;28;20140;-73
2022/07/18 03:14:11;;;;;;;4.40;2.33;;;;;;;14.96;62.48;102225.13;5093252;28;20051;-71
2022/07/18 03:16:38;;;;;;;5.07;2.30;;;;;;;14.91;62.84;102217.28;5091680;27;20072;-71
2022/07/18 03:19:05;;;;;;;3.45;2.22;;;;;;;14.87;62.70;102223.56;5093396;28;20083;-72
2022/07/18 03:21:32;;;;;;;4.72;2.33;;;;;;;14.84;63.25;102221.03;5092977;28;20124;-71
2022/07/18 03:23:59;;;;;;;3.72;2.50;;;;;;;14.82;63.44;102231.66;5093790;28;20066;-72
2022/07/18 03:26:29;;;;;;;3.58;2.30;;;;;;;14.80;63.18;102220.25;5093030;28;20201;-72
2022/07/18 03:28:57;;;;;;;6.28;2.60;;;;;;;14.83;63.38;102224.59;5094801;28;20131;-72
2022/07/18 03:31:24;;;;;;;4.47;2.38;;;;;;;14.84;63.42;102223.69;5092188;28;20033;-72
2022/07/18 03:33:51;;;;;;;4.50;2.17;;;;;;;14.83;63.62;102217.47;5086094;28;21108;-72
2022/07/18 03:36:18;;;;;;;5.13;2.67;;;;;;;14.82;63.49;102213.09;5090131;28;20049;-72
2022/07/18 03:38:46;;;;;;;4.75;2.45;;;;;;;14.82;63.08;102214.88;5092628;28;20037;-72
2022/07/18 03:41:13;;;;;;;5.72;2.50;;;;;;;14.80;62.99;102208.72;5088611;28;20503;-73
2022/07/18 03:43:41;;;;;;;7.35;2.80;;;;;;;14.79;63.20;102202.56;5092404;28;20534;-73
2022/07/18 03:46:08;;;;;;;4.80;2.47;;;;;;;14.80;63.77;102206.97;5092962;28;20037;-73
2022/07/18 03:48:36;;;;;;;8.80;2.72;;;;;;;14.77;63.52;102198.19;5089474;28;20154;-73
2022/07/18 03:51:03;;;;;;;3.40;2.10;;;;;;;14.76;63.67;102202.63;5094329;28;20553;-73
2022/07/18 03:53:32;;;;;;;7.38;2.88;;;;;;;14.76;63.57;102199.97;5092004;28;20163;-74
2022/07/18 03:55:59;;;;;;;4.15;2.60;;;;;;;14.75;63.80;102196.44;5093107;28;20513;-73
2022/07/18 03:58:26;;;;;;;4.45;2.40;;;;;;;14.81;63.77;102203.38;5091102;28;20037;-74
2022/07/18 04:00:54;;;;;;;4.20;2.47;;;;;;;14.86;63.82;102206.78;5091144;28;20041;-73
2022/07/18 04:03:21;;;;;;;7.28;2.75;;;;;;;14.90;63.70;102203.13;5091988;28;20049;-73
2022/07/18 04:05:49;;;;;;;5.32;2.70;;;;;;;14.97;63.58;102205.63;5091668;28;20522;-73
2022/07/18 04:08:16;;;;;;;4.65;2.50;;;;;;;15.04;63.61;102197.47;5091222;28;20037;-73
2022/07/18 04:10:47;;;;;;;6.30;2.95;;;;;;;15.16;63.15;102201.56;5091438;28;20051;-73
2022/07/18 04:13:14;;;;;;;7.38;3.10;;;;;;;15.20;63.03;102197.03;5087807;28;20045;-73
2022/07/18 04:15:41;;;;;;;4.68;2.72;;;;;;;15.24;63.09;102201.34;5092245;28;20495;-73
2022/07/18 04:18:09;;;;;;;8.00;2.42;;;;;;;15.28;62.97;102205.63;5089471;28;20044;-73
2022/07/18 04:20:38;;;;;;;6.38;2.58;;;;;;;15.33;62.77;102194.88;5093272;28;20070;-74
2022/07/18 04:23:08;;;;;;;5.68;2.70;;;;;;;15.41;63.19;102186.69;5090347;28;20095;-73
2022/07/18 04:25:40;;;;;;;6.50;2.90;;;;;;;15.49;62.74;102179.34;5091849;28;20507;-73
2022/07/18 04:28:10;;;;;;;6.97;2.70;;;;;;;15.61;62.34;102176.34;5089853;28;20068;-73
2022/07/18 04:30:39;;;;;;;6.30;2.97;;;;;;;15.75;62.10;102189.22;5091452;28;20036;-76
2022/07/18 04:33:09;;;;;;;8.00;2.85;;;;;;;15.91;61.65;102188.78;5091310;28;20831;-76
2022/07/18 04:35:37;;;;;;;6.45;2.88;;;;;;;16.04;61.72;102190.09;5088988;28;20180;-73
2022/07/18 04:38:10;;;;;;;9.43;3.40;;;;;;;16.15;60.92;102187.13;5089393;28;20039;-73
2022/07/18 04:40:37;;;;;;;7.35;3.20;;;;;;;16.24;60.26;102181.50;5090503;28;20044;-72
2022/07/18 04:43:06;;;;;;;8.10;2.72;;;;;;;16.34;60.27;102184.72;5088184;28;20119;-71
2022/07/18 04:45:35;;;;;;;7.20;2.85;;;;;;;16.45;60.46;102179.91;5091329;28;20067;-71
2022/07/18 04:48:06;;;;;;;5.07;2.80;;;;;;;16.64;60.24;102181.06;5092883;28;20419;-71
2022/07/18 04:50:34;;;;;;;7.72;2.50;;;;;;;16.83;59.41;102170.66;5108661;27;20051;-71
2022/07/18 04:53:01;;;;;;;5.65;2.65;;;;;;;17.01;59.16;102175.34;5103565;28;20122;-71
2022/07/18 04:55:29;;;;;;;7.30;3.10;;;;;;;17.25;58.31;102166.50;5095996;28;20111;-71
2022/07/18 04:57:56;;;;;;;6.38;2.63;;;;;;;17.45;57.83;102161.28;5091133;28;20068;-71
2022/07/18 05:00:26;;;;;;;7.45;2.38;;;;;;;17.55;57.43;102159.13;5098457;28;20478;-71
2022/07/18 05:02:56;;;;;;;5.22;3.00;;;;;;;17.62;57.19;102170.41;5094439;28;20040;-72
2022/07/18 05:05:26;;;;;;;8.25;3.03;;;;;;;17.65;57.15;102172.97;5097566;28;20087;-72
2022/07/18 05:08:03;;;;;;;8.00;3.10;;;;;;;17.68;56.89;102165.72;5099703;28;21212;-72
2022/07/18 05:10:30;;;;;;;5.18;2.78;;;;;;;17.72;56.96;102165.59;5095468;27;20147;-72
2022/07/18 05:12:58;;;;;;;5.65;2.80;;;;;;;17.75;56.86;102168.16;5092620;28;20076;-72
2022/07/18 05:15:26;;;;;;;9.38;3.25;;;;;;;17.86;56.69;102173.91;5102347;27;20040;-71
2022/07/18 05:17:54;;;;;;;7.47;3.30;;;;;;;17.93;56.60;102170.09;5093391;28;20553;-72
2022/07/18 05:20:24;;;;;;;8.50;3.40;;;;;;;18.02;56.41;102168.00;5109949;28;20033;-73
2022/07/18 05:22:58;;;;;;;7.82;2.70;;;;;;;18.18;56.18;102165.56;5090569;28;20102;-71
2022/07/18 05:25:25;;;;;;;;;;;;;;;18.41;55.54;102159.25;5078654;28;20033;-72
2022/07/18 05:27:54;;;;;;;9.52;2.97;;;;;;;18.45;55.26;102166.22;5096111;28;19924;-73
2022/07/18 05:30:23;;;;;;;7.90;2.72;;;;;;;18.57;55.24;102163.00;5106629;28;20052;-74
2022/07/18 05:32:51;;;;;;;4.90;2.80;;;;;;;18.72;54.91;102165.94;5093484;28;20140;-73
2022/07/18 05:35:19;;;;;;;9.23;3.10;;;;;;;19.00;54.56;102168.31;5109870;27;20079;-73
2022/07/18 05:37:46;;;;;;;4.75;2.65;;;;;;;20.23;52.41;102160.75;5093227;27;20863;-73
2022/07/18 05:40:15;;;;;;;5.18;2.40;;;;;;;22.40;47.56;102159.72;5090088;28;20047;-71
2022/07/18 05:42:43;;;;;;;13.77;3.28;;;;;;;24.19;43.82;102152.97;5096130;28;20107;-71
2022/07/18 05:45:22;;;;;;;7.75;2.90;;;;;;;25.91;40.23;102139.94;5102472;27;20522;-71
2022/07/18 05:47:52;;;;;;;6.60;2.13;;;;;;;27.31;36.73;102148.13;5092816;28;20064;-72
2022/07/18 05:50:19;;;;;;;6.30;2.47;;;;;;;28.45;35.13;102143.19;5102043;28;20518;-71
2022/07/18 05:52:46;;;;;;;12.88;3.10;;;;;;;29.56;32.76;102144.25;5104807;27;20125;-70
2022/07/18 05:55:15;;;;;;;8.57;2.47;;;;;;;30.50;31.18;102147.41;5102173;27;20120;-70
2022/07/18 05:57:42;;;;;;;8.48;2.72;;;;;;;31.39;29.79;102150.69;5105725;28;20071;-70
2022/07/18 06:00:11;;;;;;;8.85;2.40;;;;;;;32.17;28.08;102147.38;5099363;27;20033;-71
2022/07/18 06:02:39;;;;;;;5.55;1.95;;;;;;;32.86;27.05;102151.28;5110559;27;20076;-71
2022/07/18 06:05:08;;;;;;;5.35;2.25;;;;;;;33.54;26.17;102147.63;5092703;28;20082;-71
2022/07/18 06:07:50;;;;;;;6.82;2.10;;;;;;;34.06;24.95;102149.22;5101401;28;20048;-70
2022/07/18 06:10:17;;;;;;;3.88;2.10;;;;;;;34.33;24.78;102149.91;5103870;28;20037;-70
2022/07/18 06:12:44;;;;;;;4.93;2.22;;;;;;;34.58;24.12;102149.88;5105214;27;20048;-70
2022/07/18 06:15:13;;;;;;;28.42;3.75;;;;;;;34.78;24.13;102152.22;5101437;28;20124;-70
2022/07/18 06:17:40;;;;;;;11.45;2.53;;;;;;;34.11;24.15;102156.06;5097852;27;20053;-71
2022/07/18 06:20:08;;;;;;;8.85;2.30;;;;;;;32.01;26.69;102156.28;5106918;28;20071;-71
2022/07/18 06:22:36;;;;;;;3.22;2.00;;;;;;;29.76;29.53;102152.44;5098706;28;20060;-71
2022/07/18 06:25:04;;;;;;;12.05;2.63;;;;;;;27.96;32.26;102149.09;5106927;27;20048;-71
2022/07/18 06:27:35;;;;;;;7.15;2.55;;;;;;;26.57;34.30;102144.88;5108085;27;20072;-70
2022/07/18 06:30:04;;;;;;;9.50;2.35;;;;;;;25.47;36.44;102147.69;5098319;28;20450;-70
2022/07/18 06:32:31;;;;;;;6.13;2.75;;;;;;;24.60;38.25;102144.81;5110429;27;20040;-71
2022/07/18 06:34:58;;;;;;;9.77;2.42;;;;;;;23.96;39.88;102134.81;5103924;28;20044;-71
2022/07/18 06:37:25;;;;;;;9.18;2.30;;;;;;;23.44;41.29;102139.94;5099315;28;20092;-71
2022/07/18 06:39:54;;;;;;;8.65;2.40;;;;;;;23.06;42.21;102140.50;5109810;28;20111;-71
2022/07/18 06:42:22;;;;;;;18.08;2.80;;;;;;;22.82;42.85;102134.84;5094569;28;20055;-72
2022/07/18 06:44:55;;;;;;;10.52;2.67;;;;;;;22.68;43.47;102127.63;5112504;27;20036;-71
2022/07/18 06:47:23;;;;;;;7.15;1.80;;;;;;;22.57;43.62;102131.84;5091853;28;20059;-71
2022/07/18 06:49:51;;;;;;;6.43;2.13;;;;;;;22.53;43.71;102124.94;5106161;27;20060;-71
2022/07/18 06:52:18;;;;;;;11.82;1.90;;;;;;;22.53;43.67;102127.63;5110457;27;20127;-71
2022/07/18 06:54:45;;;;;;;8.57;1.58;;;;;;;22.54;44.12;102133.84;5107060;27;20519;-71
2022/07/18 06:57:13;;;;;;;6.95;1.83;;;;;;;22.56;43.86;102130.09;5098718;27;20094;-71
2022/07/18 06:59:40;;;;;;;11.13;1.90;;;;;;;22.60;43.80;102134.34;5093966;28;20036;-70
2022/07/18 07:02:16;;;;;;;18.67;2.67;;;;;;;22.67;43.90;102126.78;5092882;28;20117;-71
2022/07/18 07:04:43;;;;;;;110.93;11.15;;;;;;;22.71;43.76;102131.00;5090932;28;20068;-70
2022/07/18 07:07:10;;;;;;;29.23;3.08;;;;;;;22.79;43.91;102135.91;5086661;28;20571;-70
2022/07/18 07:09:38;;;;;;;9.23;2.22;;;;;;;22.84;43.81;102132.94;5092926;28;20115;-71
2022/07/18 07:12:05;;;;;;;8.23;1.80;;;;;;;22.85;44.24;102138.19;5093513;28;20090;-70
2022/07/18 07:14:32;;;;;;;7.15;1.75;;;;;;;22.90;43.77;102137.91;5091489;28;20083;-70
2022/07/18 07:16:59;;;;;;;7.75;1.67;;;;;;;23.01;44.15;102138.09;5089481;28;20135;-71
2022/07/18 07:19:26;;;;;;;13.60;2.45;;;;;;;23.16;44.12;102138.09;5090123;28;20071;-70
2022/07/18 07:21:53;;;;;;;7.55;1.50;;;;;;;23.29;43.97;102135.53;5105447;27;20150;-70
2022/07/18 07:24:21;;;;;;;10.23;2.38;;;;;;;23.41;43.55;102126.66;5108272;27;20094;-71
2022/07/18 07:26:48;;;;;;;17.70;2.58;;;;;;;23.52;43.52;102132.22;5109759;27;20573;-71
2022/07/18 07:29:22;;;;;;;10.27;2.50;;;;;;;23.63;43.28;102130.66;5095068;28;20040;-71
2022/07/18 07:31:49;;;;;;;5.50;1.80;;;;;;;23.72;43.09;102135.44;5090406;28;20132;-71
2022/07/18 07:34:17;;;;;;;7.18;2.20;;;;;;;23.87;43.10;102131.72;5092573;28;20045;-71
2022/07/18 07:36:44;;;;;;;24.30;3.35;;;;;;;23.94;43.03;102134.00;5090442;28;20045;-71
2022/07/18 07:39:11;;;;;;;7.78;2.20;;;;;;;24.03;42.68;102133.41;5097323;28;20033;-70
2022/07/18 07:41:38;;;;;;;8.45;2.08;;;;;;;24.10;42.34;102133.88;5093225;28;20545;-70
2022/07/18 07:44:05;;;;;;;8.95;2.60;;;;;;;24.16;42.11;102126.22;5092700;28;20531;-70
2022/07/18 07:46:32;;;;;;;6.38;2.35;;;;;;;24.19;42.55;102123.31;5092847;28;20098;-70
2022/07/18 07:48:59;;;;;;;10.75;2.35;;;;;;;24.19;42.46;102122.47;5092812;28;20049;-71
2022/07/18 07:51:27;;;;;;;16.10;3.25;;;;;;;24.25;42.71;102118.50;5092958;28;20039;-70
2022/07/18 07:54:05;;;;;;;7.75;2.40;;;;;;;24.35;42.37;102114.19;5094936;28;20046;-70
2022/07/18 07:56:32;;;;;;;8.30;2.20;;;;;;;24.40;42.67;102106.66;5090702;28;20074;-70
2022/07/18 07:59:01;;;;;;;5.47;1.85;;;;;;;24.44;42.47;102102.78;5093137;28;20045;-70
2022/07/18 08:01:28;;;;;;;11.57;2.47;;;;;;;24.48;42.56;102100.72;5093397;28;20041;-71
2022/07/18 08:03:55;;;;;;;5.03;2.45;;;;;;;24.55;42.89;102106.56;5094724;28;20044;-71
2022/07/18 08:06:23;;;;;;;12.48;2.58;;;;;;;24.60;43.04;102099.88;5087723;28;20781;-71
2022/07/18 08:08:50;;;;;;;6.32;2.35;;;;;;;24.68;42.25;102096.66;5077504;28;20064;-71
2022/07/18 08:11:24;;;;;;;7.07;2.20;;;;;;;24.78;42.30;102095.03;5069413;28;20137;-73
2022/07/18 08:13:51;;;;;;;13.85;2.45;;;;;;;24.92;42.25;102103.97;5069535;28;20041;-70
2022/07/18 08:16:19;;;;;;;8.88;2.10;;;;;;;25.02;42.27;102101.50;5067050;28;20120;-70
2022/07/18 08:18:46;;;;;;;11.32;2.38;;;;;;;25.14;41.47;102111.38;5069419;28;20112;-71
2022/07/18 08:21:14;;;;;;;7.60;2.33;;;;;;;25.23;41.34;102105.31;5068841;28;20107;-72
2022/07/18 08:23:42;;;;;;;8.52;2.33;;;;;;;25.34;40.42;102107.22;5066927;28;20634;-70
2022/07/18 08:26:15;;;;;;;6.93;2.33;;;;;;;25.46;40.73;102105.47;5069122;28;20073;-70
2022/07/18 08:28:43;;;;;;;6.90;2.00;;;;;;;25.64;40.64;102107.81;5068326;28;20091;-70
2022/07/18 08:31:11;;;;;;;10.32;2.22;;;;;;;25.75;40.63;102102.44;5068954;28;20621;-70
2022/07/18 08:33:39;;;;;;;9.43;2.60;;;;;;;25.88;39.78;102099.69;5067650;28;20049;-71
2022/07/18 08:36:11;;;;;;;6.75;2.38;;;;;;;25.98;39.86;102108.81;5067741;28;20033;-70
2022/07/18 08:38:40;;;;;;;4.93;2.00;;;;;;;26.09;39.82;102099.91;5071410;28;20108;-71
2022/07/18 08:41:08;;;;;;;5.97;2.17;;;;;;;26.18;38.58;102104.59;5068913;28;20120;-72
2022/07/18 08:43:35;;;;;;;6.32;2.28;;;;;;;26.27;39.06;102111.16;5068481;28;20049;-70
2022/07/18 08:46:05;;;;;;;8.70;2.17;;;;;;;26.35;38.36;102114.09;5072172;28;20100;-72
2022/07/18 08:48:33;;;;;;;6.75;2.30;;;;;;;26.46;38.56;102107.00;5068606;28;20079;-71
2022/07/18 08:51:01;;;;;;;11.43;2.28;;;;;;;26.62;37.59;102110.22;5069658;28;20037;-71
2022/07/18 08:53:28;;;;;;;5.20;1.70;;;;;;;26.74;37.51;102108.41;5068683;28;20045;-70
2022/07/18 08:55:56;;;;;;;6.65;1.60;;;;;;;26.91;37.54;102104.34;5071335;28;20079;-74
2022/07/18 08:58:23;;;;;;;6.13;1.90;;;;;;;27.09;37.07;102093.03;5069104;28;20108;-71
2022/07/18 09:01:10;;;;;;;8.93;2.17;;;;;;;27.25;36.51;102087.22;5067505;28;20041;-73
2022/07/18 09:03:37;;;;;;;7.25;1.83;;;;;;;27.31;35.29;102089.41;5068563;28;20053;-71
2022/07/18 09:06:13;;;;;;;5.22;1.60;;;;;;;27.43;35.73;102085.75;5067933;28;20042;-71
2022/07/18 09:08:59;;;;;;;5.95;1.77;;;;;;;27.62;34.85;102077.94;5066784;28;20103;-72
2022/07/18 09:11:27;;;;;;;11.38;2.28;;;;;;;27.72;34.09;102074.31;5067333;28;20048;-70
2022/07/18 09:14:35;;;;;;;6.25;1.92;;;;;;;27.89;34.21;102072.00;5071465;28;20455;-71
2022/07/18 09:17:11;;;;;;;8.35;1.50;;;;;;;27.94;34.02;102087.88;5084246;28;20135;-71
2022/07/18 09:20:08;;;;;;;5.75;1.60;;;;;;;28.04;34.21;102081.53;5067891;28;20090;-70
2022/07/18 09:22:47;;;;;;;9.02;1.92;;;;;;;28.22;33.72;102082.84;5062314;28;20549;-70
2022/07/18 09:25:20;;;;;;;6.13;2.30;;;;;;;28.30;33.76;102083.88;5064245;28;20037;-70
2022/07/18 09:27:54;;;;;;;6.63;2.13;;;;;;;28.43;33.08;102083.69;5067672;28;20071;-70
2022/07/18 09:30:35;;;;;;;5.22;1.88;;;;;;;28.54;32.91;102077.31;5063753;28;20580;-71
2022/07/18 09:33:07;;;;;;;7.63;1.83;;;;;;;28.63;32.20;102094.63;5068905;28;20045;-71
2022/07/18 09:35:47;;;;;;;3.47;1.60;;;;;;;28.75;32.55;102082.69;5064809;28;20041;-70
2022/07/18 09:38:18;;;;;;;13.02;1.92;;;;;;;28.87;31.54;102085.31;5075218;28;20041;-71
2022/07/18 09:40:51;;;;;;;6.05;1.63;;;;;;;28.98;30.48;102093.34;5068380;28;20103;-73
2022/07/18 09:43:22;;;;;;;;;;;;;;;29.06;30.34;102095.38;5073464;28;20063;-71
2022/07/18 09:45:56;;;;;;;6.28;1.80;;;;;;;29.10;30.42;102085.97;5074501;28;19971;-71
2022/07/18 09:48:26;;;;;;;10.88;2.30;;;;;;;29.20;30.96;102094.13;5068397;28;20511;-70
2022/07/18 09:50:59;;;;;;;7.75;1.60;;;;;;;29.32;30.11;102087.59;5068343;28;20429;-70
2022/07/18 09:53:31;;;;;;;5.15;1.80;;;;;;;29.49;29.67;102090.63;5068846;28;20052;-70
2022/07/18 09:56:10;;;;;;;4.80;1.80;;;;;;;29.54;29.67;102082.94;5067471;28;20033;-70
2022/07/18 09:58:50;;;;;;;4.97;1.90;;;;;;;29.64;29.63;102082.94;5067978;28;20045;-71
2022/07/18 10:01:18;;;;;;;22.95;2.22;;;;;;;29.83;29.98;102082.94;5069945;28;20696;-70
2022/07/18 10:03:48;;;;;;;12.55;2.40;;;;;;;30.00;28.89;102083.25;5066820;28;20045;-72
2022/07/18 10:06:21;;;;;;;25.38;3.20;;;;;;;30.09;28.76;102076.94;5069942;28;20098;-71
2022/07/18 10:08:50;;;;;;;13.40;2.67;;;;;;;30.20;28.55;102079.50;5066832;28;20033;-71
2022/07/18 10:11:18;;;;;;;21.25;3.60;;;;;;;30.28;28.14;102073.28;5065547;28;20043;-72
2022/07/18 10:13:46;;;;;;;12.90;1.90;;;;;;;30.42;27.62;102073.84;5063084;28;20173;-73
2022/07/18 10:16:13;;;;;;;3.67;1.48;;;;;;;30.52;27.02;102080.09;5068808;28;20052;-76
2022/07/18 10:18:41;;;;;;;6.32;1.65;;;;;;;30.62;26.80;102077.41;5069388;28;20037;-75
2022/07/18 10:21:13;;;;;;;5.72;1.60;;;;;;;30.74;26.64;102070.72;5067920;28;20057;-77
2022/07/18 10:23:47;;;;;;;6.53;1.70;;;;;;;30.96;26.26;102071.34;5068698;28;20037;-74
2022/07/18 10:26:27;;;;;;;4.70;1.38;;;;;;;30.98;25.80;102062.00;5069577;28;20065;-75
2022/07/18 10:28:54;;;;;;;8.02;1.70;;;;;;;30.90;26.64;102074.69;5066285;28;20823;-75
2022/07/18 10:31:32;;;;;;;7.93;1.80;;;;;;;30.87;26.91;102074.97;5070596;28;20055;-76
2022/07/18 10:34:06;;;;;;;10.10;1.75;;;;;;;30.81;26.71;102069.16;5067124;28;20049;-74
2022/07/18 10:36:54;;;;;;;4.80;1.40;;;;;;;30.67;26.61;102072.34;5067607;28;20047;-73
2022/07/18 10:39:38;;;;;;;23.63;3.28;;;;;;;30.55;26.75;102071.69;5065879;28;20528;-75
2022/07/18 10:42:11;;;;;;;3.22;1.27;;;;;;;30.74;26.87;102067.16;5066945;28;20033;-73
2022/07/18 10:44:40;;;;;;;;;;;;;;;30.94;27.00;102068.78;5066841;28;20047;-74
2022/07/18 10:47:12;;;;;;;15.75;1.50;;;;;;;31.10;25.74;102067.25;5067798;28;19924;-73
2022/07/18 10:49:56;;;;;;;10.20;1.70;;;;;;;31.20;25.75;102057.19;5075305;28;20041;-72
2022/07/18 10:52:33;;;;;;;7.18;1.73;;;;;;;31.49;25.57;102057.97;5067255;28;20611;-71
2022/07/18 10:55:04;;;;;;;5.82;1.40;;;;;;;31.79;25.40;102047.72;5067578;28;20458;-71
2022/07/18 10:57:42;;;;;;;8.18;1.73;;;;;;;32.11;24.78;102041.63;5067923;28;20111;-72
2022/07/18 11:00:24;;;;;;;5.97;1.60;;;;;;;32.41;25.08;102055.81;5071999;28;20465;-72
2022/07/18 11:03:10;;;;;;;17.67;2.50;;;;;;;32.65;24.95;102052.38;5066537;28;20107;-72
2022/07/18 11:05:49;;;;;;;8.23;1.63;;;;;;;32.52;25.15;102055.53;5071463;28;20510;-73
2022/07/18 11:08:19;;;;;;;7.50;1.70;;;;;;;32.26;24.97;102058.28;5067482;28;20135;-73
2022/07/18 11:10:57;;;;;;;11.73;1.77;;;;;;;31.90;25.35;102048.31;5066806;28;20047;-72
2022/07/18 11:13:24;;;;;;;8.45;1.40;;;;;;;31.46;26.71;102048.25;5071930;28;20116;-73
2022/07/18 11:15:59;;;;;;;3.85;1.30;;;;;;;31.19;27.07;102050.00;5071662;28;20059;-73
2022/07/18 11:18:31;;;;;;;6.85;1.85;;;;;;;31.22;26.84;102051.59;5071332;28;20061;-74
2022/07/18 11:21:15;;;;;;;5.28;1.45;;;;;;;31.34;26.29;102044.06;5084934;28;20510;-73
2022/07/18 11:23:46;;;;;;;;;;;;;;;31.50;26.84;102044.19;5069178;28;20125;-72
2022/07/18 11:26:19;;;;;;;24.52;2.80;;;;;;;31.71;25.99;102035.75;5074655;28;19928;-71
2022/07/18 11:29:05;;;;;;;11.07;1.95;;;;;;;31.91;25.85;102032.81;5069240;28;20036;-71
2022/07/18 11:31:44;;;;;;;7.85;1.92;;;;;;;32.08;25.55;102033.78;5067472;28;20037;-72
2022/07/18 11:34:11;;;;;;;6.55;1.92;;;;;;;32.23;24.83;102034.06;5070733;28;20090;-71
2022/07/18 11:36:45;;;;;;;9.77;2.20;;;;;;;32.29;24.75;102024.41;5071998;28;20041;-71
2022/07/18 11:39:15;;;;;;;9.40;2.17;;;;;;;32.35;24.71;102018.28;5069355;28;20053;-70
2022/07/18 11:41:42;;;;;;;19.95;2.60;;;;;;;32.37;24.61;102019.81;5071908;28;20041;-70